Time;durP1;ratioP1;P1;durP2;ratioP2;P2;SDS_P1;SDS_P2;PMS_P1;PMS_P2;Temp;Humidity;BMP_temperature;BMP_pressure;BME280_temperature;BME280_humidity;BME280_pressure;Samples;Min_cycle;Max_cycle;Signal;HPM_P1;HPM_P2
2023/08/26 00:00:53;;;;;;;11.32;2.47;;;;;;;20.61;53.54;100733.19;5033311;28;20171;-62
2023/08/26 00:03:21;;;;;;;4.63;2.45;;;;;;;20.68;54.82;100733.28;5031658;28;20049;-62
2023/08/26 00:05:50;;;;;;;10.60;2.03;;;;;;;20.78;53.44;100732.63;5046954;28;20056;-61
2023/08/26 00:08:17;;;;;;;3.60;1.45;;;;;;;20.66;53.69;100738.47;5051458;28;20053;-62
2023/08/26 00:10:45;;;;;;;10.57;2.25;;;;;;;20.81;53.04;100732.66;5052839;28;20783;-61
2023/08/26 00:13:12;;;;;;;4.90;1.63;;;;;;;20.76;54.45;100730.19;5052343;28;20590;-62
2023/08/26 00:15:40;;;;;;;4.80;1.63;;;;;;;20.86;54.59;100734.31;5042027;28;20051;-61
2023/08/26 00:18:08;;;;;;;4.78;1.60;;;;;;;20.86;55.12;100723.91;5060569;28;20049;-61
2023/08/26 00:20:37;;;;;;;8.63;1.67;;;;;;;20.97;53.87;100718.44;5046192;28;20050;-63
2023/08/26 00:23:04;;;;;;;5.75;1.50;;;;;;;21.01;54.57;100727.69;5049586;28;20072;-62
2023/08/26 00:25:31;;;;;;;4.72;1.27;;;;;;;21.11;54.65;100724.22;5059745;28;20931;-62
2023/08/26 00:27:59;;;;;;;6.03;1.90;;;;;;;20.91;54.02;100715.16;5052819;28;20052;-61
2023/08/26 00:30:26;;;;;;;3.70;1.20;;;;;;;20.81;53.95;100723.44;5044116;28;20053;-62
2023/08/26 00:32:53;;;;;;;7.97;1.58;;;;;;;20.77;54.47;100720.59;5031409;28;20049;-61
2023/08/26 00:35:21;;;;;;;8.20;1.30;;;;;;;20.81;54.84;100713.06;5047949;28;20421;-61
2023/08/26 00:37:49;;;;;;;4.63;1.30;;;;;;;20.57;55.66;100709.97;5051936;28;20052;-62
2023/08/26 00:40:17;;;;;;;3.35;1.35;;;;;;;20.55;55.17;100709.53;5046797;28;20076;-62
2023/08/26 00:42:45;;;;;;;6.60;1.40;;;;;;;20.66;54.91;100722.47;5050878;28;20061;-62
2023/08/26 00:45:13;;;;;;;6.72;1.45;;;;;;;20.82;54.55;100713.84;5052904;28;20061;-62
2023/08/26 00:47:41;;;;;;;4.33;1.13;;;;;;;20.85;54.27;100705.50;5043184;28;21023;-62
2023/08/26 00:50:09;;;;;;;5.20;1.20;;;;;;;20.91;54.53;100708.75;5017902;28;20656;-62
2023/08/26 00:52:36;;;;;;;2.25;1.20;;;;;;;20.92;54.66;100711.16;5050989;28;20060;-62
2023/08/26 00:55:05;;;;;;;5.47;1.13;;;;;;;20.57;53.88;100705.19;5050749;28;20052;-62
2023/08/26 00:57:32;;;;;;;6.95;1.90;;;;;;;20.49;53.65;100705.44;5033884;28;20045;-63
2023/08/26 01:00:00;;;;;;;5.10;1.58;;;;;;;20.26;53.66;100713.94;5038585;28;20046;-63
2023/08/26 01:02:27;;;;;;;4.78;1.42;;;;;;;20.37;54.32;100712.09;5030963;28;20052;-62
2023/08/26 01:04:55;;;;;;;3.00;1.10;;;;;;;20.70;54.52;100711.31;5019240;28;20528;-61
2023/08/26 01:07:22;;;;;;;2.40;1.00;;;;;;;20.83;54.93;100709.88;5030628;28;20049;-61
2023/08/26 01:09:50;;;;;;;4.10;1.08;;;;;;;20.67;54.47;100706.47;5056835;28;20048;-62
2023/08/26 01:12:39;;;;;;;5.30;1.65;;;;;;;20.88;54.57;100707.53;5057273;28;20155;-60
2023/08/26 01:15:09;;;;;;;5.57;1.30;;;;;;;20.61;54.22;100714.41;5054834;28;20052;-61
2023/08/26 01:17:37;;;;;;;6.40;1.40;;;;;;;20.81;55.23;100717.84;5048720;28;20041;-62
2023/08/26 01:20:06;;;;;;;6.47;1.77;;;;;;;20.75;54.65;100716.56;5047259;28;20049;-63
2023/08/26 01:22:34;;;;;;;2.35;1.20;;;;;;;20.67;54.25;100712.88;5057473;28;20049;-62
2023/08/26 01:25:02;;;;;;;6.30;1.50;;;;;;;20.70;55.23;100711.31;5058111;28;20049;-62
2023/08/26 01:27:29;;;;;;;3.05;1.20;;;;;;;20.50;55.34;100716.28;5037765;28;20459;-62
2023/08/26 01:29:57;;;;;;;6.68;1.35;;;;;;;20.75;54.86;100711.78;5057018;28;20527;-61
2023/08/26 01:32:26;;;;;;;4.07;1.35;;;;;;;20.71;55.38;100712.94;5058942;28;20045;-62
2023/08/26 01:34:56;;;;;;;3.78;1.30;;;;;;;20.79;55.24;100712.63;5008050;28;20049;-62
2023/08/26 01:37:25;;;;;;;4.32;1.10;;;;;;;20.51;54.29;100705.88;5040730;28;20049;-61
2023/08/26 01:39:54;;;;;;;3.65;1.00;;;;;;;20.58;54.90;100705.97;5056329;28;20056;-62
2023/08/26 01:42:24;;;;;;;4.67;1.63;;;;;;;20.59;55.16;100699.19;5058083;28;20060;-62
2023/08/26 01:44:52;;;;;;;4.20;1.30;;;;;;;20.61;54.54;100694.00;5049340;28;20053;-62
2023/08/26 01:47:19;;;;;;;6.30;1.65;;;;;;;20.75;54.83;100688.56;5021146;28;20053;-61
2023/08/26 01:49:46;;;;;;;2.65;1.27;;;;;;;20.45;53.62;100697.00;5058821;28;20052;-61
2023/08/26 01:52:16;;;;;;;3.20;1.20;;;;;;;20.52;54.98;100687.91;5040122;28;20107;-61
2023/08/26 01:54:44;;;;;;;7.20;1.50;;;;;;;20.66;54.94;100693.69;5040073;28;20929;-62
2023/08/26 01:57:11;;;;;;;4.68;1.05;;;;;;;20.70;54.84;100684.13;5050589;28;20413;-62
2023/08/26 01:59:38;;;;;;;4.45;1.13;;;;;;;20.77;55.22;100681.41;5047485;28;20053;-62
2023/08/26 02:02:06;;;;;;;3.50;1.20;;;;;;;20.77;53.86;100686.19;5056436;28;20055;-62
2023/08/26 02:04:33;;;;;;;5.07;2.10;;;;;;;20.83;54.77;100684.69;5039820;28;20061;-62
2023/08/26 02:07:01;;;;;;;5.25;2.67;;;;;;;20.75;54.59;100677.38;5026323;28;20053;-62
2023/08/26 02:09:28;;;;;;;6.00;1.80;;;;;;;20.69;54.99;100674.13;5057087;28;20488;-63
2023/08/26 02:11:55;;;;;;;4.70;1.23;;;;;;;20.79;55.10;100683.81;5056305;28;20139;-62
2023/08/26 02:14:23;;;;;;;5.80;1.33;;;;;;;20.57;54.33;100676.38;5058174;28;20040;-62
2023/08/26 02:16:50;;;;;;;2.40;1.00;;;;;;;20.66;55.79;100688.88;5059419;28;20055;-62
2023/08/26 02:19:18;;;;;;;3.20;1.10;;;;;;;20.67;55.43;100676.50;5069848;28;20049;-62
2023/08/26 02:21:45;;;;;;;5.47;1.23;;;;;;;20.11;54.62;100684.13;5038102;28;20041;-61
2023/08/26 02:24:13;;;;;;;3.17;1.20;;;;;;;20.19;54.88;100674.66;5050800;28;20049;-62
2023/08/26 02:26:40;;;;;;;5.10;1.25;;;;;;;19.97;56.50;100672.72;5053435;28;20053;-62
2023/08/26 02:29:08;;;;;;;5.00;1.20;;;;;;;19.98;56.79;100674.34;5054089;28;20257;-62
2023/08/26 02:31:36;;;;;;;2.92;1.15;;;;;;;20.18;56.17;100675.88;5042749;28;20050;-62
2023/08/26 02:34:03;;;;;;;3.10;1.10;;;;;;;20.21;55.29;100675.09;5035291;28;20083;-63
2023/08/26 02:36:30;;;;;;;5.03;1.08;;;;;;;20.28;56.88;100672.41;5048448;28;20067;-63
2023/08/26 02:38:58;;;;;;;5.22;1.50;;;;;;;20.22;56.03;100671.13;5052958;28;20041;-62
2023/08/26 02:41:25;;;;;;;4.70;1.23;;;;;;;20.20;56.32;100670.69;5053806;28;20049;-63
2023/08/26 02:43:52;;;;;;;6.72;1.50;;;;;;;20.27;56.20;100665.19;5053230;28;20057;-61
2023/08/26 02:46:20;;;;;;;4.03;1.40;;;;;;;20.06;56.34;100674.09;5050011;28;20111;-61
2023/08/26 02:48:48;;;;;;;5.93;1.40;;;;;;;20.05;56.94;100669.66;5047249;28;20049;-62
2023/08/26 02:51:15;;;;;;;3.05;1.15;;;;;;;20.02;57.37;100664.00;5054782;28;20052;-62
2023/08/26 02:53:42;;;;;;;7.95;1.48;;;;;;;20.08;57.72;100666.09;5047989;28;20057;-61
2023/08/26 02:56:10;;;;;;;4.25;1.15;;;;;;;19.90;57.43;100664.25;5052766;28;20049;-61
2023/08/26 02:58:37;;;;;;;4.68;1.23;;;;;;;19.96;58.20;100666.31;5049928;28;20040;-61
2023/08/26 03:01:06;;;;;;;3.72;1.42;;;;;;;19.98;57.26;100660.34;5033548;28;20053;-62
2023/08/26 03:03:33;;;;;;;4.85;1.23;;;;;;;19.93;57.58;100649.50;5017354;28;20053;-61
2023/08/26 03:06:01;;;;;;;6.28;1.38;;;;;;;19.77;57.64;100649.69;5025688;28;20060;-61
2023/08/26 03:08:29;;;;;;;4.40;1.42;;;;;;;19.63;58.84;100651.47;5029676;28;20048;-61
2023/08/26 03:11:00;;;;;;;5.78;1.38;;;;;;;19.61;58.66;100653.81;5027455;28;20053;-61
2023/08/26 03:13:27;;;;;;;4.03;1.65;;;;;;;19.88;58.70;100647.03;5033303;28;20053;-61
2023/08/26 03:15:56;;;;;;;5.38;1.20;;;;;;;19.62;58.85;100644.25;5032898;28;20057;-62
2023/08/26 03:18:23;;;;;;;4.57;1.48;;;;;;;19.58;58.50;100652.56;5067217;28;20056;-62
2023/08/26 03:20:50;;;;;;;2.72;1.13;;;;;;;19.78;59.23;100648.50;5053891;28;20084;-62
2023/08/26 03:23:18;;;;;;;6.18;1.50;;;;;;;19.82;58.96;100646.56;5045194;28;20057;-62
2023/08/26 03:25:47;;;;;;;3.55;1.10;;;;;;;19.71;59.00;100645.59;5053447;28;20045;-62
2023/08/26 03:28:14;;;;;;;3.38;1.30;;;;;;;19.79;59.00;100647.31;5033761;28;20053;-61
2023/08/26 03:30:41;;;;;;;6.45;1.80;;;;;;;19.55;58.84;100642.16;5033599;28;20057;-62
2023/08/26 03:33:10;;;;;;;5.50;1.55;;;;;;;19.70;58.89;100640.41;5032771;28;20469;-62
2023/08/26 03:35:39;;;;;;;2.95;1.00;;;;;;;19.78;59.65;100642.09;5043373;28;20056;-62
2023/08/26 03:38:07;;;;;;;3.50;1.25;;;;;;;19.81;59.08;100644.13;5052791;28;20060;-62
2023/08/26 03:40:38;;;;;;;4.05;1.10;;;;;;;19.79;58.78;100644.53;5053462;28;20045;-61
2023/08/26 03:43:07;;;;;;;5.10;1.48;;;;;;;19.71;59.11;100653.19;5049180;28;20587;-62
2023/08/26 03:45:34;;;;;;;5.07;1.30;;;;;;;19.70;59.08;100654.38;5035634;28;20056;-62
2023/08/26 03:48:02;;;;;;;4.80;1.30;;;;;;;19.73;59.31;100654.44;5055442;28;20056;-62
2023/08/26 03:50:30;;;;;;;6.78;1.40;;;;;;;19.55;59.82;100649.72;5051779;28;20044;-62
2023/08/26 03:52:57;;;;;;;5.68;1.70;;;;;;;19.48;60.37;100650.44;5052216;28;20061;-62
2023/08/26 03:55:24;;;;;;;5.80;1.50;;;;;;;19.42;60.64;100651.13;5053566;28;20052;-62
2023/08/26 03:57:52;;;;;;;6.30;1.70;;;;;;;19.32;61.83;100652.53;5051954;28;20044;-61
2023/08/26 04:00:19;;;;;;;4.75;1.42;;;;;;;19.15;62.45;100643.84;5051272;28;20052;-63
2023/08/26 04:02:47;;;;;;;7.53;1.85;;;;;;;19.26;62.02;100650.41;5052682;28;20053;-62
2023/08/26 04:05:16;;;;;;;4.25;1.17;;;;;;;19.17;62.37;100642.28;5051960;28;20049;-62
2023/08/26 04:07:44;;;;;;;3.33;1.40;;;;;;;18.90;63.11;100649.78;5052710;28;20061;-63
2023/08/26 04:10:11;;;;;;;5.40;1.70;;;;;;;18.45;64.22;100648.88;5050664;28;20476;-62
2023/08/26 04:12:39;;;;;;;4.03;1.38;;;;;;;18.46;65.02;100647.72;5051584;28;20053;-63
2023/08/26 04:15:07;;;;;;;5.32;1.63;;;;;;;18.59;65.58;100649.97;5035275;28;20436;-62
2023/08/26 04:17:35;;;;;;;6.00;1.67;;;;;;;18.62;65.58;100648.47;5054477;28;20765;-62
2023/08/26 04:20:03;;;;;;;3.00;1.27;;;;;;;18.56;65.14;100650.72;5051332;28;20040;-62
2023/08/26 04:22:31;;;;;;;6.13;1.67;;;;;;;18.73;65.58;100643.88;5035290;28;20049;-62
2023/08/26 04:24:58;;;;;;;5.10;1.40;;;;;;;18.98;65.30;100642.34;5056699;28;20054;-61
2023/08/26 04:27:27;;;;;;;4.10;1.48;;;;;;;18.86;64.60;100650.91;5015838;28;20508;-62
2023/08/26 04:29:55;;;;;;;3.80;1.40;;;;;;;19.03;65.01;100648.44;5032699;28;20116;-61
2023/08/26 04:32:22;;;;;;;6.88;1.92;;;;;;;18.87;64.84;100646.94;5031772;28;20171;-63
2023/08/26 04:34:49;;;;;;;5.05;1.27;;;;;;;18.68;64.97;100646.97;5033905;28;20060;-63
2023/08/26 04:37:20;;;;;;;5.50;1.50;;;;;;;18.93;65.42;100640.66;5050734;28;20056;-62
2023/08/26 04:39:48;;;;;;;3.47;1.40;;;;;;;18.76;65.26;100640.31;5039968;28;20062;-61
2023/08/26 04:42:16;;;;;;;6.68;1.50;;;;;;;18.73;66.00;100643.88;5052702;28;20064;-61
2023/08/26 04:44:43;;;;;;;8.05;1.67;;;;;;;18.71;66.26;100644.25;5034052;28;20041;-62
2023/08/26 04:47:10;;;;;;;5.93;1.25;;;;;;;18.19;66.84;100641.16;5040658;28;20056;-62
2023/08/26 04:49:39;;;;;;;6.45;1.48;;;;;;;18.21;68.27;100635.22;5052369;28;20475;-62
2023/08/26 04:52:07;;;;;;;3.38;1.63;;;;;;;18.18;68.49;100638.75;5032362;28;20048;-62
2023/08/26 04:54:35;;;;;;;4.57;1.30;;;;;;;18.17;68.09;100642.69;5031254;28;20053;-61
2023/08/26 04:57:02;;;;;;;6.70;1.40;;;;;;;18.44;67.81;100648.09;5032769;28;20041;-62
2023/08/26 04:59:30;;;;;;;4.55;1.30;;;;;;;18.02;67.56;100641.59;5039667;28;20045;-61
2023/08/26 05:01:57;;;;;;;4.07;1.20;;;;;;;18.46;68.03;100650.50;5052442;28;20060;-62
2023/08/26 05:04:25;;;;;;;4.82;1.40;;;;;;;18.59;67.20;100649.16;5050855;28;20048;-62
2023/08/26 05:06:54;;;;;;;4.38;1.42;;;;;;;18.43;67.14;100654.84;5034903;28;20052;-62
2023/08/26 05:09:23;;;;;;;4.95;1.42;;;;;;;17.83;68.73;100655.50;5033995;28;20240;-62
2023/08/26 05:11:51;;;;;;;2.88;1.17;;;;;;;17.80;69.88;100656.22;5036189;28;20673;-62
2023/08/26 05:14:18;;;;;;;7.05;2.08;;;;;;;18.39;68.66;100673.47;5032429;28;20061;-62
2023/08/26 05:16:46;;;;;;;5.72;1.35;;;;;;;18.37;68.27;100670.22;5043061;28;20052;-62
2023/08/26 05:19:13;;;;;;;6.80;1.30;;;;;;;18.33;68.97;100674.09;5040963;28;20053;-62
2023/08/26 05:21:40;;;;;;;4.85;1.35;;;;;;;18.55;67.86;100670.63;5050781;28;20056;-64
2023/08/26 05:24:10;;;;;;;6.85;1.40;;;;;;;18.20;68.64;100669.84;5060361;28;20052;-63
2023/08/26 05:26:37;;;;;;;4.22;1.40;;;;;;;18.41;68.80;100670.34;5052330;28;20448;-63
2023/08/26 05:29:07;;;;;;;4.25;1.55;;;;;;;18.45;68.04;100676.78;5045483;28;20060;-64
2023/08/26 05:31:34;;;;;;;4.55;1.40;;;;;;;18.35;68.38;100688.50;5050945;28;20381;-65
2023/08/26 05:34:02;;;;;;;5.70;1.40;;;;;;;18.35;67.67;100691.28;5050350;28;20048;-62
2023/08/26 05:36:29;;;;;;;6.00;1.38;;;;;;;18.12;68.65;100679.22;5049613;28;20045;-64
2023/08/26 05:38:56;;;;;;;4.18;1.30;;;;;;;18.25;69.30;100673.16;5040717;28;20064;-63
2023/08/26 05:41:24;;;;;;;4.53;1.38;;;;;;;18.10;68.08;100670.44;5033568;28;20575;-63
2023/08/26 05:43:51;;;;;;;5.55;1.40;;;;;;;18.26;68.63;100671.97;5032664;28;20062;-64
2023/08/26 05:46:19;;;;;;;5.85;1.35;;;;;;;18.15;68.06;100668.16;5032076;28;20584;-63
2023/08/26 05:48:46;;;;;;;8.75;1.20;;;;;;;18.49;68.91;100672.09;5026772;28;20056;-64
2023/08/26 05:51:13;;;;;;;5.88;1.48;;;;;;;18.57;67.95;100665.47;5037304;28;20053;-64
2023/08/26 05:53:41;;;;;;;5.00;1.45;;;;;;;18.50;68.05;100659.75;5054564;28;20045;-64
2023/08/26 05:56:08;;;;;;;9.27;1.40;;;;;;;18.60;68.19;100662.75;5052273;28;20493;-64
2023/08/26 05:58:36;;;;;;;4.20;1.45;;;;;;;18.46;67.97;100667.25;5048176;28;20045;-63
2023/08/26 06:01:04;;;;;;;5.53;1.30;;;;;;;18.29;67.24;100668.44;5049732;28;20517;-64
2023/08/26 06:03:31;;;;;;;5.60;1.40;;;;;;;18.44;68.09;100669.59;5056181;28;20057;-64
2023/08/26 06:05:58;;;;;;;5.03;1.20;;;;;;;18.61;67.68;100677.50;5054169;28;20053;-63
2023/08/26 06:08:26;;;;;;;4.80;1.27;;;;;;;18.68;67.87;100675.69;5055023;28;20045;-64
2023/08/26 06:10:55;;;;;;;6.13;1.23;;;;;;;18.84;67.13;100673.59;5054019;28;20567;-63
2023/08/26 06:13:23;;;;;;;4.43;1.27;;;;;;;18.61;67.06;100666.34;5037711;28;20056;-64
2023/08/26 06:15:57;;;;;;;3.45;1.13;;;;;;;18.86;67.26;100676.81;5053885;28;20055;-64
2023/08/26 06:18:26;;;;;;;3.35;1.20;;;;;;;18.98;65.75;100685.03;5041538;28;20041;-64
2023/08/26 06:20:53;;;;;;;6.72;1.42;;;;;;;19.08;66.52;100680.81;5054739;28;20044;-64
2023/08/26 06:23:21;;;;;;;6.70;1.20;;;;;;;19.14;66.38;100679.34;5054416;28;21644;-64
2023/08/26 06:25:52;;;;;;;5.95;1.40;;;;;;;18.85;66.49;100677.19;5041043;28;20049;-65
2023/08/26 06:28:20;;;;;;;6.28;2.60;;;;;;;19.07;65.86;100693.19;5053388;28;20052;-63
2023/08/26 06:30:47;;;;;;;3.60;1.10;;;;;;;18.54;66.26;100682.94;5053179;28;20049;-65
2023/08/26 06:33:16;;;;;;;6.65;1.45;;;;;;;19.01;66.53;100683.47;5044083;28;20515;-63
2023/08/26 06:35:49;;;;;;;7.55;1.40;;;;;;;19.05;65.94;100667.59;5040970;28;20041;-64
2023/08/26 06:38:17;;;;;;;6.00;1.60;;;;;;;19.00;64.86;100671.50;5033113;28;20057;-64
2023/08/26 06:40:57;;;;;;;4.68;1.15;;;;;;;18.68;66.21;100669.28;5047840;28;20060;-65
2023/08/26 06:43:24;;;;;;;4.07;1.08;;;;;;;18.88;66.64;100674.47;5053168;28;20060;-63
2023/08/26 06:45:52;;;;;;;8.50;1.35;;;;;;;19.00;66.98;100667.91;5054755;28;20049;-63
2023/08/26 06:48:19;;;;;;;5.40;1.17;;;;;;;18.87;66.49;100672.88;5061694;28;20056;-64
2023/08/26 06:50:48;;;;;;;4.18;1.15;;;;;;;18.87;66.63;100672.88;5065797;28;20053;-65
2023/08/26 06:53:21;;;;;;;4.78;1.48;;;;;;;18.80;66.99;100672.72;5052373;28;20075;-64
2023/08/26 06:55:51;;;;;;;3.03;1.10;;;;;;;18.94;66.54;100672.19;5053368;28;20041;-64
2023/08/26 06:58:19;;;;;;;3.72;1.15;;;;;;;19.03;66.93;100669.97;5046899;28;20064;-63
2023/08/26 07:00:47;;;;;;;6.18;1.20;;;;;;;18.90;66.70;100674.09;5053470;28;20389;-64
2023/08/26 07:03:15;;;;;;;8.10;1.20;;;;;;;19.03;66.30;100670.78;5054073;28;20049;-64
2023/08/26 07:05:44;;;;;;;5.60;1.42;;;;;;;19.33;66.17;100670.13;5036132;28;20053;-64
2023/08/26 07:08:13;;;;;;;5.65;1.40;;;;;;;19.16;66.22;100671.38;5052767;28;20057;-64
2023/08/26 07:10:40;;;;;;;4.88;1.10;;;;;;;19.40;65.76;100673.03;5043881;28;20045;-63
2023/08/26 07:13:08;;;;;;;4.65;1.23;;;;;;;19.51;65.24;100665.66;5034496;28;20053;-64
2023/08/26 07:15:36;;;;;;;4.78;1.42;;;;;;;19.21;65.68;100671.09;5037478;28;20519;-64
2023/08/26 07:18:04;;;;;;;7.25;1.67;;;;;;;19.32;65.56;100668.53;5067498;28;20547;-65
2023/08/26 07:20:32;;;;;;;4.22;1.45;;;;;;;19.03;65.18;100667.16;5049585;28;20500;-64
2023/08/26 07:22:59;;;;;;;6.72;1.20;;;;;;;19.09;65.22;100663.69;5054306;28;20045;-64
2023/08/26 07:25:27;;;;;;;4.45;1.25;;;;;;;19.34;65.42;100664.16;5046148;28;20428;-64
2023/08/26 07:27:54;;;;;;;4.55;1.27;;;;;;;19.39;65.38;100663.03;5049505;28;20049;-64
2023/08/26 07:30:22;;;;;;;3.55;1.10;;;;;;;19.59;65.95;100667.34;5053965;28;20408;-64
2023/08/26 07:32:49;;;;;;;3.88;1.15;;;;;;;19.64;64.84;100665.06;5054209;28;20049;-63
2023/08/26 07:35:16;;;;;;;4.72;1.48;;;;;;;19.78;64.82;100653.28;5053036;28;20048;-64
2023/08/26 07:37:44;;;;;;;4.30;1.38;;;;;;;19.84;64.97;100644.19;5049702;28;20393;-64
2023/08/26 07:40:15;;;;;;;4.90;1.30;;;;;;;19.79;65.24;100657.69;5053894;28;20048;-65
2023/08/26 07:42:43;;;;;;;5.47;1.10;;;;;;;20.02;64.64;100661.22;5051643;28;20045;-64
2023/08/26 07:45:11;;;;;;;6.18;1.30;;;;;;;20.23;64.26;100653.16;5045884;28;20057;-64
2023/08/26 07:47:40;;;;;;;4.40;1.38;;;;;;;20.17;63.42;100662.25;5052315;28;20056;-63
2023/08/26 07:50:10;;;;;;;5.30;1.60;;;;;;;19.89;64.03;100660.63;5052744;28;20060;-64
2023/08/26 07:52:38;;;;;;;8.82;1.67;;;;;;;19.94;64.40;100665.09;5053078;28;20041;-64
2023/08/26 07:55:05;;;;;;;3.88;1.20;;;;;;;20.01;63.62;100666.00;5053455;28;20420;-64
2023/08/26 07:57:33;;;;;;;6.32;1.20;;;;;;;19.87;63.64;100665.81;5053591;28;20420;-64
2023/08/26 08:00:02;;;;;;;8.13;1.55;;;;;;;20.13;64.15;100668.59;5052157;28;20429;-64
2023/08/26 08:02:38;;;;;;;4.30;1.30;;;;;;;20.15;64.21;100673.81;5040959;28;20048;-63
2023/08/26 08:05:06;;;;;;;5.85;1.38;;;;;;;20.28;64.14;100678.00;5031701;28;20071;-64
2023/08/26 08:07:33;;;;;;;3.17;0.95;;;;;;;19.98;63.85;100677.13;5044123;28;20511;-65
2023/08/26 08:10:00;;;;;;;4.28;0.95;;;;;;;20.01;64.46;100666.00;5053098;28;20059;-63
2023/08/26 08:12:27;;;;;;;4.50;1.20;;;;;;;20.22;63.99;100678.72;5053235;28;20036;-65
2023/08/26 08:14:55;;;;;;;5.35;1.00;;;;;;;20.20;63.58;100681.06;5049032;28;20053;-64
2023/08/26 08:17:22;;;;;;;6.20;1.40;;;;;;;20.45;62.54;100693.41;5049407;28;20053;-64
2023/08/26 08:19:49;;;;;;;4.15;1.17;;;;;;;20.52;62.83;100688.69;5046597;28;20045;-63
2023/08/26 08:22:17;;;;;;;5.03;1.38;;;;;;;20.66;63.97;100696.47;5041960;28;20057;-65
2023/08/26 08:24:46;;;;;;;4.90;1.55;;;;;;;20.86;62.17;100707.13;5030895;28;20048;-59
2023/08/26 08:27:14;;;;;;;3.72;0.88;;;;;;;20.96;59.58;100695.22;5042091;28;20069;-62
2023/08/26 08:29:42;;;;;;;4.78;1.00;;;;;;;20.85;59.03;100701.91;5046180;28;20057;-60
2023/08/26 08:32:09;;;;;;;2.60;0.68;;;;;;;19.33;63.56;100718.41;5041033;28;20048;-37
2023/08/26 08:34:36;;;;;;;4.47;1.00;;;;;;;19.54;64.91;100721.59;5042301;28;20052;-38
2023/08/26 08:37:03;;;;;;;3.22;0.95;;;;;;;21.16;59.85;100709.88;5040837;28;20045;-38
2023/08/26 08:39:31;;;;;;;7.07;1.23;;;;;;;22.29;55.75;100704.00;5037344;28;20045;-38
2023/08/26 08:42:01;;;;;;;3.08;0.90;;;;;;;22.99;54.26;100697.06;5045792;28;20060;-38
2023/08/26 08:44:32;;;;;;;3.42;1.15;;;;;;;23.38;52.24;100697.97;5051353;28;20067;-39
2023/08/26 08:47:05;;;;;;;2.85;1.00;;;;;;;23.65;51.25;100699.19;5051226;28;20570;-39
2023/08/26 08:49:33;;;;;;;5.47;0.68;;;;;;;23.80;51.01;100706.41;5016874;28;20045;-40
2023/08/26 08:52:05;;;;;;;4.13;0.90;;;;;;;23.69;50.09;100702.81;5046101;28;20053;-44
2023/08/26 08:54:34;;;;;;;2.35;0.90;;;;;;;23.63;50.74;100706.41;5059056;28;20041;-39
2023/08/26 08:57:06;;;;;;;6.15;1.17;;;;;;;23.77;50.23;100709.22;5051871;28;20048;-39
2023/08/26 08:59:37;;;;;;;5.70;1.20;;;;;;;23.91;50.55;100712.03;5046622;28;20052;-40
2023/08/26 09:02:05;;;;;;;4.25;1.38;;;;;;;24.00;49.52;100706.81;5034701;28;20057;-39
2023/08/26 09:04:33;;;;;;;4.95;1.05;;;;;;;23.98;49.91;100712.84;5042684;28;20049;-39
2023/08/26 09:07:03;;;;;;;4.97;1.20;;;;;;;23.95;49.66;100707.22;5041575;28;20041;-39
2023/08/26 09:09:30;;;;;;;6.88;1.10;;;;;;;23.96;49.44;100714.44;5039820;28;20048;-39
2023/08/26 09:12:06;;;;;;;4.97;1.10;;;;;;;23.87;49.22;100712.03;5028520;28;20453;-40
2023/08/26 09:14:34;;;;;;;5.07;0.82;;;;;;;23.78;48.78;100720.06;5040909;28;20071;-38
2023/08/26 09:17:17;;;;;;;4.85;1.00;;;;;;;23.86;49.12;100718.88;5040991;28;20045;-39
2023/08/26 09:19:56;;;;;;;6.53;1.20;;;;;;;23.88;48.78;100713.66;5041643;28;20436;-38
2023/08/26 09:22:29;;;;;;;3.25;0.85;;;;;;;23.86;48.43;100710.44;5042133;28;20894;-40
2023/08/26 09:24:58;;;;;;;4.60;1.00;;;;;;;23.86;48.99;100706.81;5042969;28;20048;-43
2023/08/26 09:27:26;;;;;;;7.43;1.15;;;;;;;23.45;49.26;100712.03;5050509;28;20692;-40
2023/08/26 09:29:54;;;;;;;3.25;0.90;;;;;;;23.70;49.11;100717.66;5044938;28;20053;-39
2023/08/26 09:32:39;;;;;;;20.77;1.80;;;;;;;23.87;49.34;100714.84;5047567;28;20045;-40
2023/08/26 09:35:16;;;;;;;4.00;1.17;;;;;;;23.98;49.17;100712.84;5048552;28;20049;-39
2023/08/26 09:37:55;;;;;;;4.45;0.98;;;;;;;24.02;49.37;100713.69;5048732;28;20055;-38
2023/08/26 09:40:24;;;;;;;4.38;0.80;;;;;;;24.12;49.27;100715.66;5047094;28;20731;-39
2023/08/26 09:42:52;;;;;;;5.28;0.95;;;;;;;24.12;49.07;100715.66;5052297;28;20045;-39
2023/08/26 09:45:19;;;;;;;5.78;1.00;;;;;;;24.16;48.89;100715.66;5049143;28;20048;-40
2023/08/26 09:47:49;;;;;;;4.47;1.05;;;;;;;23.63;49.29;100706.41;5049459;28;20671;-39
2023/08/26 09:50:17;;;;;;;8.65;1.27;;;;;;;23.94;49.40;100716.84;5050729;28;20053;-39
2023/08/26 09:52:51;;;;;;;7.00;0.90;;;;;;;24.09;48.36;100705.22;5047091;28;20052;-39
2023/08/26 09:55:20;;;;;;;3.53;0.90;;;;;;;23.95;47.62;100701.59;5044008;28;20057;-38
2023/08/26 09:57:48;;;;;;;3.92;0.90;;;;;;;24.01;48.77;100695.16;5051921;28;20055;-39
2023/08/26 10:00:16;;;;;;;2.75;0.80;;;;;;;24.13;47.71;100696.78;5047212;28;20057;-40
2023/08/26 10:02:51;;;;;;;4.63;0.85;;;;;;;24.09;47.76;100704.41;5044442;28;20492;-38
2023/08/26 10:05:22;;;;;;;3.15;0.93;;;;;;;24.07;47.45;100693.56;5044830;28;20040;-39
2023/08/26 10:07:51;;;;;;;4.07;0.80;;;;;;;24.13;47.33;100691.13;5044703;28;20057;-38
2023/08/26 10:10:29;;;;;;;2.65;0.90;;;;;;;23.94;48.06;100685.88;5046849;28;20052;-36
2023/08/26 10:13:01;;;;;;;10.13;1.27;;;;;;;24.04;47.89;100685.91;5046923;28;20049;-36
2023/08/26 10:15:32;;;;;;;8.23;1.10;;;;;;;24.18;47.52;100697.13;5048238;28;20072;-36
2023/08/26 10:18:14;;;;;;;8.40;1.00;;;;;;;24.21;47.34;100681.47;5041444;28;20049;-37
2023/08/26 10:20:43;;;;;;;5.63;0.98;;;;;;;24.27;46.93;100677.00;5040400;28;20057;-35
2023/08/26 10:23:12;;;;;;;3.10;1.10;;;;;;;24.35;46.38;100678.59;5046543;28;20044;-36
2023/08/26 10:25:40;;;;;;;7.45;1.50;;;;;;;24.39;46.05;100680.19;5045667;28;20044;-36
2023/08/26 10:28:08;;;;;;;5.03;1.33;;;;;;;24.38;45.81;100683.41;5041359;28;20056;-35
2023/08/26 10:30:36;;;;;;;2.67;1.08;;;;;;;24.41;45.55;100674.13;5050451;28;20056;-35
2023/08/26 10:33:05;;;;;;;4.38;1.10;;;;;;;24.43;45.57;100669.72;5042364;28;20038;-36
2023/08/26 10:35:32;;;;;;;7.68;1.00;;;;;;;24.52;44.81;100678.53;5045426;28;20056;-36
2023/08/26 10:38:14;;;;;;;1.88;0.75;;;;;;;24.64;44.50;100679.28;5041969;28;20053;-35
2023/08/26 10:40:41;;;;;;;4.90;0.93;;;;;;;24.72;44.35;100678.06;5045616;28;20046;-35
2023/08/26 10:43:12;;;;;;;18.08;0.90;;;;;;;24.58;43.86;100678.91;5046574;28;20061;-35
2023/08/26 10:45:49;;;;;;;4.72;0.80;;;;;;;24.59;44.27;100679.69;5037322;28;20057;-35
2023/08/26 10:48:16;;;;;;;2.60;1.00;;;;;;;24.52;44.14;100672.91;5042586;28;20056;-36
2023/08/26 10:50:57;;;;;;;2.08;0.80;;;;;;;24.56;44.17;100670.06;5047715;28;20040;-35
2023/08/26 10:53:24;;;;;;;4.18;1.20;;;;;;;24.63;44.11;100663.59;5050939;28;20041;-35
2023/08/26 10:55:53;;;;;;;4.50;0.85;;;;;;;24.67;44.53;100670.03;5047007;28;20041;-35
2023/08/26 10:58:21;;;;;;;3.55;1.02;;;;;;;24.59;44.07;100663.63;5046616;28;20155;-35
2023/08/26 11:00:50;;;;;;;2.40;0.90;;;;;;;24.59;44.55;100666.44;5044017;28;20509;-35
2023/08/26 11:03:20;;;;;;;2.72;0.70;;;;;;;24.50;44.65;100651.97;5049906;28;20049;-36
2023/08/26 11:06:02;;;;;;;6.07;1.17;;;;;;;24.50;44.04;100658.41;5043750;28;20061;-36
2023/08/26 11:08:30;;;;;;;2.67;0.80;;;;;;;24.58;44.15;100649.94;5043940;28;20064;-35
2023/08/26 11:10:58;;;;;;;4.22;0.88;;;;;;;24.67;43.92;100639.03;5040647;28;20052;-36
2023/08/26 11:13:25;;;;;;;4.32;1.10;;;;;;;24.57;44.49;100642.69;5046261;28;20680;-36
2023/08/26 11:15:52;;;;;;;3.25;0.80;;;;;;;24.59;44.14;100645.91;5047987;28;20599;-36
2023/08/26 11:18:20;;;;;;;3.42;0.80;;;;;;;24.51;44.14;100642.34;5044530;28;20523;-36
2023/08/26 11:20:49;;;;;;;2.38;0.80;;;;;;;24.55;44.38;100636.69;5009514;28;20056;-37
2023/08/26 11:23:17;;;;;;;5.72;0.90;;;;;;;24.51;44.24;100639.53;5044440;28;20680;-36
2023/08/26 11:25:44;;;;;;;2.60;0.80;;;;;;;24.60;43.94;100647.53;5042000;28;20064;-37
2023/08/26 11:28:12;;;;;;;3.83;1.30;;;;;;;24.63;43.70;100632.63;5043552;28;20045;-37
2023/08/26 11:30:41;;;;;;;3.28;0.73;;;;;;;24.68;43.80;100635.00;5046520;28;20041;-38